createdAt,value
2019-04-28T00:00:53.224Z,13.50
2019-04-28T00:03:23.374Z,20.03
2019-04-28T00:05:52.906Z,22.73
2019-04-28T00:08:22.841Z,15.67
2019-04-28T00:10:53.395Z,15.27
2019-04-28T00:13:23.273Z,20.00
2019-04-28T00:15:54.215Z,25.17
2019-04-28T00:18:24.172Z,23.43
2019-04-28T00:21:12.220Z,13.60
2019-04-28T00:23:46.310Z,19.83
2019-04-28T00:26:31.105Z,13.17
2019-04-28T00:29:01.347Z,16.43
2019-04-28T00:31:31.288Z,28.73
2019-04-28T00:34:01.414Z,22.47
2019-04-28T00:36:31.342Z,23.03
2019-04-28T00:39:01.650Z,16.43
2019-04-28T00:41:31.253Z,19.30
2019-04-28T00:44:01.893Z,24.07
2019-04-28T00:46:33.235Z,13.93
2019-04-28T00:49:02.739Z,12.80
2019-04-28T00:51:33.228Z,12.67
2019-04-28T00:54:02.928Z,17.67
2019-04-28T00:56:32.528Z,31.07
2019-04-28T00:59:02.158Z,22.23
2019-04-28T01:01:48.422Z,12.83
2019-04-28T01:04:18.344Z,25.53
2019-04-28T01:06:48.029Z,22.70
2019-04-28T01:09:17.623Z,19.50
2019-04-28T01:11:47.580Z,17.40
2019-04-28T01:14:17.204Z,20.60
2019-04-28T01:17:04.337Z,26.53
2019-04-28T01:19:35.480Z,18.03
2019-04-28T01:22:10.310Z,28.17
2019-04-28T01:24:41.105Z,25.37
2019-04-28T01:27:20.350Z,21.97
2019-04-28T01:29:51.664Z,30.43
2019-04-28T01:32:26.872Z,26.67
2019-04-28T01:34:56.416Z,33.10
2019-04-28T01:37:25.926Z,28.33
2019-04-28T01:39:55.529Z,20.80
2019-04-28T01:42:25.083Z,25.00
2019-04-28T01:44:54.580Z,22.53
2019-04-28T01:47:24.348Z,23.47
2019-04-28T01:49:53.844Z,27.60
2019-04-28T01:52:23.348Z,16.87
2019-04-28T01:54:52.907Z,17.87
2019-04-28T01:57:22.510Z,18.50
2019-04-28T01:59:52.137Z,22.90
2019-04-28T02:02:22.337Z,24.73
2019-04-28T02:04:51.825Z,29.97
2019-04-28T02:07:21.346Z,17.60
2019-04-28T02:09:50.949Z,29.20
2019-04-28T02:12:21.149Z,37.03
2019-04-28T02:14:52.180Z,21.67
2019-04-28T02:17:21.825Z,24.37
2019-04-28T02:19:51.651Z,25.67
2019-04-28T02:22:26.761Z,28.70
2019-04-28T02:24:56.284Z,18.70
2019-04-28T02:27:25.796Z,27.67
2019-04-28T02:29:55.277Z,16.17
2019-04-28T02:32:24.905Z,24.90
2019-04-28T02:34:54.438Z,27.63
2019-04-28T02:37:23.972Z,22.43
2019-04-28T02:39:53.661Z,22.60
2019-04-28T02:42:25.304Z,27.70
2019-04-28T02:44:55.332Z,19.87
2019-04-28T02:47:25.071Z,15.63
2019-04-28T02:49:56.403Z,22.87
2019-04-28T02:52:30.598Z,24.00
2019-04-28T02:55:02.950Z,22.83
2019-04-28T02:57:31.462Z,18.37
2019-04-28T03:00:01.088Z,24.03
2019-04-28T03:02:31.999Z,27.87
2019-04-28T03:05:01.913Z,12.20
2019-04-28T03:07:31.543Z,32.87
2019-04-28T03:10:03.760Z,28.10
2019-04-28T03:12:32.746Z,28.73
2019-04-28T03:15:02.320Z,20.37
2019-04-28T03:17:32.342Z,21.73
2019-04-28T03:20:01.915Z,22.20
2019-04-28T03:22:33.738Z,21.87
2019-04-28T03:25:04.361Z,14.33
2019-04-28T03:27:40.549Z,27.13
2019-04-28T03:30:13.272Z,20.50
2019-04-28T03:32:58.409Z,31.10
2019-04-28T03:35:23.247Z,17.00
2019-04-28T03:37:53.077Z,26.97
2019-04-28T03:40:22.685Z,30.03
2019-04-28T03:42:52.444Z,23.80
2019-04-28T03:45:24.651Z,21.10
2019-04-28T03:47:54.147Z,24.47
2019-04-28T03:50:23.681Z,20.10
2019-04-28T03:52:53.484Z,25.43
2019-04-28T03:55:22.985Z,23.63
2019-04-28T03:57:52.476Z,37.67
2019-04-28T04:00:22.208Z,25.53
2019-04-28T04:02:51.863Z,22.20
2019-04-28T04:05:21.425Z,15.83
2019-04-28T04:07:50.975Z,25.20
2019-04-28T04:10:42.129Z,23.63
2019-04-28T04:13:16.406Z,15.73
2019-04-28T04:15:53.887Z,21.43
2019-04-28T04:18:40.507Z,15.57
2019-04-28T04:21:11.106Z,24.20
2019-04-28T04:23:41.389Z,27.33
2019-04-28T04:26:11.707Z,23.93
2019-04-28T04:28:41.895Z,26.80
2019-04-28T04:31:11.693Z,21.40
2019-04-28T04:33:41.519Z,18.23
2019-04-28T04:36:11.941Z,28.70
2019-04-28T04:38:45.972Z,22.77
2019-04-28T04:41:13.040Z,15.93
2019-04-28T04:43:42.606Z,21.30
2019-04-28T04:46:16.862Z,25.17
2019-04-28T04:48:46.429Z,23.20
2019-04-28T04:51:16.134Z,21.03
2019-04-28T04:53:45.921Z,28.67
2019-04-28T04:56:15.565Z,25.00
2019-04-28T04:58:45.364Z,13.20
2019-04-28T05:01:23.001Z,16.80
2019-04-28T05:03:59.953Z,31.80
2019-04-28T05:06:36.486Z,21.87
2019-04-28T05:09:10.094Z,21.83
2019-04-28T05:11:40.279Z,28.03
2019-04-28T05:14:12.127Z,19.20
2019-04-28T05:16:42.120Z,19.13
2019-04-28T05:19:12.026Z,22.37
2019-04-28T05:21:41.545Z,15.60
2019-04-28T05:24:30.521Z,25.87
2019-04-28T05:27:00.345Z,28.83
2019-04-28T05:29:30.670Z,28.77
2019-04-28T05:32:03.382Z,20.07
2019-04-28T05:34:31.601Z,18.83
2019-04-28T05:37:03.153Z,20.77
2019-04-28T05:39:33.740Z,24.30
2019-04-28T05:42:04.381Z,35.67
2019-04-28T05:44:33.967Z,23.53
2019-04-28T05:47:03.492Z,15.57
2019-04-28T05:49:39.580Z,14.80
2019-04-28T05:52:27.147Z,18.20
2019-04-28T05:55:10.206Z,23.97
2019-04-28T05:57:59.864Z,25.73
2019-04-28T06:00:34.448Z,12.37
2019-04-28T06:03:05.718Z,19.37
2019-04-28T06:05:35.228Z,12.50
2019-04-28T06:08:15.519Z,15.13
2019-04-28T06:10:47.240Z,14.97
2019-04-28T06:13:16.740Z,25.30
2019-04-28T06:15:46.297Z,9.40
2019-04-28T06:18:16.059Z,37.03
2019-04-28T06:20:45.612Z,16.87
2019-04-28T06:23:15.311Z,10.17
2019-04-28T06:25:44.867Z,17.37
2019-04-28T06:28:14.636Z,17.30
2019-04-28T06:30:44.222Z,22.50
2019-04-28T06:33:15.108Z,22.83
2019-04-28T06:35:44.671Z,28.20
2019-04-28T06:38:14.277Z,15.40
2019-04-28T06:40:43.796Z,12.60
2019-04-28T06:43:13.348Z,6.87
2019-04-28T06:45:42.940Z,17.10
2019-04-28T06:48:12.488Z,23.20
2019-04-28T06:50:42.068Z,21.20
2019-04-28T06:53:11.677Z,22.23
2019-04-28T06:55:41.205Z,19.27
2019-04-28T06:58:11.089Z,19.03
2019-04-28T07:00:40.719Z,30.53
2019-04-28T07:03:22.454Z,14.50
2019-04-28T07:05:41.593Z,15.17
2019-04-28T07:08:13.801Z,22.20
2019-04-28T07:10:42.393Z,20.70
2019-04-28T07:13:12.925Z,15.80
2019-04-28T07:15:42.656Z,12.97
2019-04-28T07:18:12.149Z,14.97
2019-04-28T07:20:49.171Z,18.27
2019-04-28T07:23:19.758Z,14.80
2019-04-28T07:25:49.318Z,18.60
2019-04-28T07:28:18.836Z,21.90
2019-04-28T07:30:49.326Z,27.83
2019-04-28T07:33:19.433Z,14.23
2019-04-28T07:35:49.892Z,14.57
2019-04-28T07:38:19.594Z,28.77
2019-04-28T07:40:49.441Z,20.03
2019-04-28T07:43:19.060Z,19.77
2019-04-28T07:45:48.551Z,18.20
2019-04-28T07:48:18.098Z,22.20
2019-04-28T07:50:47.633Z,15.20
2019-04-28T07:53:21.438Z,20.63
2019-04-28T07:55:50.961Z,32.77
2019-04-28T07:58:20.445Z,15.23
2019-04-28T08:00:50.121Z,15.23
2019-04-28T08:03:19.712Z,20.53
2019-04-28T08:05:49.246Z,12.67
2019-04-28T08:08:19.731Z,14.47
2019-04-28T08:10:49.319Z,14.17
2019-04-28T08:13:20.175Z,19.60
2019-04-28T08:15:50.320Z,15.00
2019-04-28T08:18:19.894Z,14.37
2019-04-28T08:20:49.624Z,17.63
2019-04-28T08:23:19.245Z,24.53
2019-04-28T08:25:49.014Z,15.73
2019-04-28T08:28:19.267Z,21.33
2019-04-28T08:30:48.849Z,14.10
2019-04-28T08:33:20.173Z,12.43
2019-04-28T08:35:49.704Z,17.77
2019-04-28T08:38:19.384Z,17.03
2019-04-28T08:40:48.988Z,13.90
2019-04-28T08:43:18.512Z,10.77
2019-04-28T08:45:48.130Z,10.73
2019-04-28T08:48:17.877Z,12.73
2019-04-28T08:50:47.442Z,10.13
2019-04-28T08:53:17.272Z,13.73
2019-04-28T08:55:46.790Z,15.80
2019-04-28T08:58:16.737Z,9.17
2019-04-28T09:00:47.216Z,11.53
2019-04-28T09:03:16.783Z,9.10
2019-04-28T09:05:47.288Z,12.43
2019-04-28T09:08:16.898Z,20.60
2019-04-28T09:10:47.485Z,14.97
2019-04-28T09:13:17.073Z,12.00
2019-04-28T09:15:46.644Z,14.73
2019-04-28T09:18:16.243Z,11.13
2019-04-28T09:20:45.820Z,13.30
2019-04-28T09:23:17.532Z,12.33
2019-04-28T09:25:47.017Z,12.63
2019-04-28T09:28:16.558Z,8.73
2019-04-28T09:30:46.544Z,9.77
2019-04-28T09:33:16.219Z,8.77
2019-04-28T09:35:45.921Z,9.00
2019-04-28T09:38:15.529Z,5.77
2019-04-28T09:40:45.154Z,10.93
2019-04-28T09:43:22.098Z,8.10
2019-04-28T09:45:53.272Z,7.47
2019-04-28T09:48:22.827Z,7.63
2019-04-28T09:50:52.497Z,10.93
2019-04-28T09:53:22.112Z,12.80
2019-04-28T09:55:51.729Z,11.53
2019-04-28T09:58:21.224Z,7.97
2019-04-28T10:00:50.761Z,10.17
2019-04-28T10:03:20.270Z,16.60
2019-04-28T10:05:50.128Z,12.17
2019-04-28T10:08:19.646Z,13.83
2019-04-28T10:10:49.276Z,15.77
2019-04-28T10:13:19.400Z,19.53
2019-04-28T10:15:49.035Z,8.63
2019-04-28T10:18:22.437Z,7.60
2019-04-28T10:20:52.268Z,14.17
2019-04-28T10:23:21.853Z,9.77
2019-04-28T10:25:51.393Z,9.27
2019-04-28T10:28:21.001Z,9.73
2019-04-28T10:30:50.502Z,12.23
2019-04-28T10:33:20.124Z,9.37
2019-04-28T10:35:49.712Z,12.00
2019-04-28T10:38:19.304Z,11.57
2019-04-28T10:40:50.583Z,9.33
2019-04-28T10:43:20.204Z,11.70
2019-04-28T10:45:50.905Z,9.73
2019-04-28T10:48:20.465Z,9.57
2019-04-28T10:50:50.058Z,6.57
2019-04-28T10:53:19.574Z,12.20
2019-04-28T10:55:49.225Z,8.40
2019-04-28T10:58:18.731Z,12.07
2019-04-28T11:00:48.246Z,9.43
2019-04-28T11:03:17.775Z,6.70
2019-04-28T11:05:47.371Z,7.57
2019-04-28T11:08:21.350Z,10.40
2019-04-28T11:10:51.057Z,6.60
2019-04-28T11:13:21.777Z,6.10
2019-04-28T11:15:51.427Z,10.30
2019-04-28T11:18:20.914Z,8.07
2019-04-28T11:20:50.571Z,11.13
2019-04-28T11:23:23.157Z,10.93
2019-04-28T11:25:51.453Z,10.80
2019-04-28T11:28:20.985Z,6.73
2019-04-28T11:30:50.542Z,7.40
2019-04-28T11:33:33.945Z,9.27
2019-04-28T11:36:03.898Z,9.10
2019-04-28T11:38:33.437Z,5.97
2019-04-28T11:41:03.166Z,7.93
2019-04-28T11:43:32.934Z,10.57
2019-04-28T11:46:04.169Z,6.53
2019-04-28T11:48:33.665Z,8.03
2019-04-28T11:51:03.492Z,7.00
2019-04-28T11:53:33.384Z,7.00
2019-04-28T11:56:04.030Z,8.83
2019-04-28T11:58:33.789Z,9.50
2019-04-28T12:01:04.317Z,9.17
2019-04-28T12:03:33.849Z,10.30
2019-04-28T12:06:03.556Z,6.83
2019-04-28T12:08:33.164Z,7.13
2019-04-28T12:11:12.936Z,4.90
2019-04-28T12:13:59.193Z,5.30
2019-04-28T12:16:46.515Z,4.90
2019-04-28T12:19:21.395Z,3.60
2019-04-28T12:21:50.898Z,6.37
2019-04-28T12:24:20.496Z,7.67
2019-04-28T12:26:50.018Z,5.37
2019-04-28T12:29:19.624Z,8.17
2019-04-28T12:31:49.158Z,4.97
2019-04-28T12:34:18.688Z,6.80
2019-04-28T12:36:48.204Z,3.90
2019-04-28T12:39:17.759Z,11.10
2019-04-28T12:41:47.602Z,5.80
2019-04-28T12:44:17.160Z,4.43
2019-04-28T12:46:46.657Z,3.43
2019-04-28T12:49:17.901Z,4.73
2019-04-28T12:51:47.397Z,3.33
2019-04-28T12:54:18.616Z,5.63
2019-04-28T12:56:49.152Z,4.20
2019-04-28T12:59:20.298Z,5.80
2019-04-28T13:01:54.426Z,5.77
2019-04-28T13:04:25.657Z,7.57
2019-04-28T13:07:02.236Z,6.60
2019-04-28T13:09:32.043Z,4.47
2019-04-28T13:12:02.589Z,6.20
2019-04-28T13:14:32.624Z,5.57
2019-04-28T13:17:02.488Z,5.40
2019-04-28T13:19:32.030Z,6.87
2019-04-28T13:22:01.580Z,5.50
2019-04-28T13:24:31.339Z,4.20
2019-04-28T13:27:00.924Z,4.10
2019-04-28T13:29:30.456Z,4.80
2019-04-28T13:32:00.336Z,4.83
2019-04-28T13:34:31.543Z,4.30
2019-04-28T13:37:01.133Z,5.60
2019-04-28T13:39:32.321Z,5.53
2019-04-28T13:42:01.887Z,6.60
2019-04-28T13:44:51.254Z,4.47
2019-04-28T13:47:21.557Z,4.70
2019-04-28T13:49:55.315Z,6.20
2019-04-28T13:52:24.921Z,8.20
2019-04-28T13:54:56.082Z,5.73
2019-04-28T13:57:25.631Z,6.23
2019-04-28T13:59:57.020Z,3.63
2019-04-28T14:02:31.059Z,6.80
2019-04-28T14:05:04.918Z,3.80
2019-04-28T14:07:34.687Z,3.63
2019-04-28T14:10:07.197Z,4.20
2019-04-28T14:12:36.880Z,3.87
2019-04-28T14:15:06.891Z,3.63
2019-04-28T14:17:36.624Z,4.83
2019-04-28T14:20:07.582Z,3.23
2019-04-28T14:22:37.396Z,4.83
2019-04-28T14:25:07.437Z,3.70
2019-04-28T14:27:37.089Z,3.60
2019-04-28T14:30:08.244Z,4.53
2019-04-28T14:32:37.791Z,5.73
2019-04-28T14:35:07.747Z,5.83
2019-04-28T14:37:37.322Z,2.87
2019-04-28T14:40:07.312Z,3.43
2019-04-28T14:42:36.981Z,3.20
2019-04-28T14:45:08.166Z,5.33
2019-04-28T14:47:37.854Z,4.77
2019-04-28T14:50:08.156Z,5.10
2019-04-28T14:52:37.634Z,3.50
2019-04-28T14:55:07.733Z,4.40
2019-04-28T14:57:37.333Z,5.20
2019-04-28T15:00:08.017Z,4.13
2019-04-28T15:02:41.890Z,4.10
2019-04-28T15:05:29.924Z,4.53
2019-04-28T15:08:10.195Z,4.30
2019-04-28T15:10:47.364Z,5.00
2019-04-28T15:13:18.281Z,4.83
2019-04-28T15:15:49.113Z,5.50
2019-04-28T15:18:18.640Z,4.40
2019-04-28T15:20:48.248Z,4.30
2019-04-28T15:23:17.880Z,5.13
2019-04-28T15:25:47.481Z,4.00
2019-04-28T15:28:17.000Z,3.40
2019-04-28T15:30:46.609Z,4.03
2019-04-28T15:33:16.247Z,4.30
2019-04-28T15:35:45.718Z,7.27
2019-04-28T15:38:16.314Z,6.30
2019-04-28T15:40:45.826Z,4.37
2019-04-28T15:43:15.364Z,7.03
2019-04-28T15:45:45.322Z,7.77
2019-04-28T15:48:14.874Z,5.77
2019-04-28T15:50:44.384Z,5.00
2019-04-28T15:53:13.906Z,3.83
2019-04-28T15:55:45.153Z,5.77
2019-04-28T15:58:34.625Z,5.33
2019-04-28T16:01:04.750Z,5.40
2019-04-28T16:03:34.436Z,4.20
2019-04-28T16:06:04.829Z,6.10
2019-04-28T16:08:34.495Z,5.60
2019-04-28T16:11:04.163Z,9.00
2019-04-28T16:13:33.874Z,7.90
2019-04-28T16:16:03.671Z,4.97
2019-04-28T16:18:33.229Z,4.73
2019-04-28T16:21:02.789Z,7.80
2019-04-28T16:23:32.304Z,6.93
2019-04-28T16:26:02.240Z,8.20
2019-04-28T16:28:31.805Z,7.70
2019-04-28T16:31:01.327Z,9.63
2019-04-28T16:33:30.872Z,5.67
2019-04-28T16:36:00.635Z,5.37
2019-04-28T16:38:30.277Z,5.27
2019-04-28T16:41:00.120Z,5.73
2019-04-28T16:43:29.900Z,6.33
2019-04-28T16:45:59.474Z,7.20
2019-04-28T16:48:30.564Z,6.90
2019-04-28T16:51:00.120Z,6.20
2019-04-28T16:53:29.674Z,5.03
2019-04-28T16:56:00.956Z,9.20
2019-04-28T16:58:41.140Z,7.80
2019-04-28T17:01:12.368Z,6.80
2019-04-28T17:03:42.026Z,9.50
2019-04-28T17:06:11.565Z,6.97
2019-04-28T17:08:44.525Z,7.90
2019-04-28T17:11:12.884Z,6.00
2019-04-28T17:13:42.917Z,5.83
2019-04-28T17:16:12.670Z,7.17
2019-04-28T17:18:42.268Z,7.30
2019-04-28T17:21:11.773Z,7.27
2019-04-28T17:23:41.270Z,7.20
2019-04-28T17:26:11.438Z,6.70
2019-04-28T17:28:40.986Z,7.87
2019-04-28T17:31:10.668Z,7.57
2019-04-28T17:33:40.250Z,8.17
2019-04-28T17:36:09.801Z,9.80
2019-04-28T17:38:39.393Z,7.50
2019-04-28T17:41:09.217Z,8.43
2019-04-28T17:43:38.750Z,9.07
2019-04-28T17:46:08.426Z,7.30
2019-04-28T17:48:39.976Z,8.67
2019-04-28T17:51:09.645Z,7.03
2019-04-28T17:53:39.347Z,7.27
2019-04-28T17:56:08.897Z,6.77
2019-04-28T17:58:38.473Z,7.13
2019-04-28T18:01:09.661Z,8.07
2019-04-28T18:03:57.554Z,8.07
2019-04-28T18:06:28.689Z,10.23
2019-04-28T18:08:58.302Z,7.63
2019-04-28T18:11:27.964Z,7.70
2019-04-28T18:13:57.580Z,7.50
2019-04-28T18:16:29.200Z,7.03
2019-04-28T18:19:00.430Z,8.23
2019-04-28T18:21:30.026Z,8.47
2019-04-28T18:23:59.517Z,8.17
2019-04-28T18:26:30.549Z,8.13
2019-04-28T18:29:00.317Z,6.67
2019-04-28T18:31:34.019Z,6.43
2019-04-28T18:34:05.184Z,6.83
2019-04-28T18:36:36.329Z,9.53
2019-04-28T18:39:11.800Z,7.40
2019-04-28T18:41:46.095Z,6.23
2019-04-28T18:44:17.281Z,9.30
2019-04-28T18:46:46.775Z,8.83
2019-04-28T18:49:16.309Z,7.70
2019-04-28T18:51:45.858Z,11.77
2019-04-28T18:54:15.451Z,10.10
2019-04-28T18:56:45.233Z,8.03
2019-04-28T18:59:14.722Z,8.30
2019-04-28T19:01:54.951Z,10.33
2019-04-28T19:04:24.592Z,12.47
2019-04-28T19:07:04.322Z,10.63
2019-04-28T19:09:43.287Z,10.63
2019-04-28T19:12:14.479Z,8.63
2019-04-28T19:14:45.740Z,13.00
2019-04-28T19:17:36.045Z,9.80
2019-04-28T19:20:05.797Z,10.60
2019-04-28T19:22:36.938Z,13.07
2019-04-28T19:25:06.533Z,8.20
2019-04-28T19:27:36.155Z,19.60
2019-04-28T19:30:06.389Z,9.73
2019-04-28T19:32:36.030Z,10.80
2019-04-28T19:35:05.776Z,11.10
2019-04-28T19:37:35.313Z,14.40
2019-04-28T19:40:06.973Z,12.53
2019-04-28T19:42:36.478Z,9.57
2019-04-28T19:45:08.382Z,10.63
2019-04-28T19:47:37.908Z,10.20
2019-04-28T19:50:07.910Z,13.40
2019-04-28T19:52:39.766Z,12.60
2019-04-28T19:55:19.124Z,10.23
2019-04-28T19:57:50.433Z,12.13
2019-04-28T20:00:21.717Z,10.77
2019-04-28T20:02:51.312Z,14.70
2019-04-28T20:05:20.809Z,11.87
2019-04-28T20:07:50.662Z,22.43
2019-04-28T20:10:20.172Z,21.83
2019-04-28T20:12:49.673Z,16.20
2019-04-28T20:15:19.465Z,50.70
2019-04-28T20:17:48.985Z,70.17
2019-04-28T20:20:18.506Z,55.73
2019-04-28T20:22:48.289Z,40.43
2019-04-28T20:25:17.794Z,30.10
2019-04-28T20:27:47.292Z,21.33
2019-04-28T20:30:17.316Z,15.37
2019-04-28T20:32:46.947Z,13.47
2019-04-28T20:35:18.349Z,20.50
2019-04-28T20:37:55.628Z,21.67
2019-04-28T20:40:35.874Z,17.30
2019-04-28T20:43:07.047Z,14.70
2019-04-28T20:45:36.569Z,15.77
2019-04-28T20:48:06.052Z,14.93
2019-04-28T20:50:35.601Z,13.43
2019-04-28T20:53:05.162Z,12.70
2019-04-28T20:55:34.654Z,15.87
2019-04-28T20:58:04.252Z,19.70
2019-04-28T21:00:33.737Z,19.73
2019-04-28T21:03:03.269Z,23.80
2019-04-28T21:05:32.819Z,22.83
2019-04-28T21:08:02.397Z,20.57
2019-04-28T21:10:38.353Z,16.53
2019-04-28T21:13:03.293Z,19.90
2019-04-28T21:15:32.796Z,15.00
2019-04-28T21:18:02.672Z,18.20
2019-04-28T21:20:32.184Z,18.33
2019-04-28T21:23:01.709Z,16.83
2019-04-28T21:25:31.343Z,15.43
2019-04-28T21:28:00.836Z,20.90
2019-04-28T21:30:30.369Z,20.67
2019-04-28T21:32:59.844Z,22.57
2019-04-28T21:35:29.552Z,27.90
2019-04-28T21:37:59.144Z,27.43
2019-04-28T21:40:29.104Z,23.83
2019-04-28T21:43:16.662Z,24.10
2019-04-28T21:46:00.004Z,20.20
2019-04-28T21:48:39.875Z,19.17
2019-04-28T21:51:11.917Z,21.93
2019-04-28T21:53:40.690Z,18.93
2019-04-28T21:56:10.211Z,19.10
2019-04-28T21:58:39.740Z,23.47
2019-04-28T22:03:47.780Z,19.60
2019-04-28T22:06:17.301Z,21.13
2019-04-28T22:08:46.792Z,28.30
2019-04-28T22:11:16.440Z,20.80
2019-04-28T22:13:46.228Z,20.13
2019-04-28T22:16:15.717Z,18.33
2019-04-28T22:18:46.209Z,19.50
2019-04-28T22:21:15.753Z,20.93
2019-04-28T22:23:46.870Z,19.27
2019-04-28T22:26:34.266Z,26.07
2019-04-28T22:29:03.841Z,23.07
2019-04-28T22:31:33.342Z,19.10
2019-04-28T22:34:02.896Z,18.60
2019-04-28T22:36:32.453Z,17.73
2019-04-28T22:39:02.008Z,19.53
2019-04-28T22:41:31.529Z,22.37
2019-04-28T22:44:01.032Z,22.30
2019-04-28T22:46:30.545Z,21.20
2019-04-28T22:49:01.689Z,21.10
2019-04-28T22:51:31.944Z,21.30
2019-04-28T22:54:03.611Z,28.10
2019-04-28T22:56:37.797Z,23.23
2019-04-28T22:59:21.387Z,23.20
2019-04-28T23:01:55.913Z,22.63
2019-04-28T23:04:33.372Z,19.37
2019-04-28T23:07:02.884Z,18.23
2019-04-28T23:09:32.465Z,21.63
2019-04-28T23:12:01.969Z,20.30
2019-04-28T23:14:31.507Z,18.63
2019-04-28T23:17:01.172Z,25.97
2019-04-28T23:19:32.304Z,23.70
2019-04-28T23:22:09.333Z,25.97
2019-04-28T23:24:38.967Z,20.97
2019-04-28T23:27:08.714Z,22.30
2019-04-28T23:29:38.256Z,22.50
2019-04-28T23:32:07.988Z,22.90
2019-04-28T23:34:37.525Z,30.67
2019-04-28T23:37:07.139Z,24.70
2019-04-28T23:39:36.833Z,19.80
2019-04-28T23:42:10.840Z,20.60
2019-04-28T23:44:40.334Z,23.57
2019-04-28T23:47:09.882Z,19.87
2019-04-28T23:49:39.700Z,20.93
2019-04-28T23:52:13.605Z,23.50
2019-04-28T23:55:00.093Z,20.93
2019-04-28T23:57:30.526Z,18.67
